createdAt,value
2022-12-26T00:02:00.787Z,7.00
2022-12-26T00:04:51.901Z,7.20
2022-12-26T00:07:18.094Z,8.10
2022-12-26T00:09:46.961Z,7.70
2022-12-26T00:12:15.525Z,7.40
2022-12-26T00:14:44.218Z,6.90
2022-12-26T00:17:12.745Z,7.20
2022-12-26T00:19:41.360Z,8.30
2022-12-26T00:22:09.901Z,8.20
2022-12-26T00:24:39.024Z,8.00
2022-12-26T00:27:07.637Z,8.10
2022-12-26T00:29:36.327Z,8.30
2022-12-26T00:32:05.248Z,7.90
2022-12-26T00:34:34.086Z,9.70
2022-12-26T00:37:02.769Z,8.50
2022-12-26T00:39:31.508Z,7.50
2022-12-26T00:42:00.063Z,8.60
2022-12-26T00:44:28.612Z,7.70
2022-12-26T00:46:57.290Z,7.60
2022-12-26T00:49:26.676Z,7.90
2022-12-26T00:51:55.249Z,7.50
2022-12-26T00:54:23.915Z,7.60
2022-12-26T00:56:52.439Z,7.60
2022-12-26T00:59:21.584Z,7.60
2022-12-26T01:01:50.351Z,8.30
2022-12-26T01:04:19.253Z,9.40
2022-12-26T01:06:47.783Z,8.70
2022-12-26T01:09:16.395Z,7.90
2022-12-26T01:11:44.990Z,8.10
2022-12-26T01:14:18.016Z,8.70
2022-12-26T01:16:47.658Z,8.00
2022-12-26T01:19:16.486Z,7.70
2022-12-26T01:21:45.156Z,7.60
2022-12-26T01:24:14.106Z,9.10
2022-12-26T01:26:42.711Z,8.40
2022-12-26T01:29:11.302Z,7.10
2022-12-26T01:31:39.835Z,8.20
2022-12-26T01:34:09.057Z,7.00
2022-12-26T01:36:37.730Z,7.30
2022-12-26T01:39:06.223Z,7.70
2022-12-26T01:41:34.915Z,7.60
2022-12-26T01:44:46.219Z,6.60
2022-12-26T01:47:15.740Z,7.30
2022-12-26T01:49:48.504Z,7.20
2022-12-26T01:52:26.590Z,7.30
2022-12-26T01:54:56.161Z,7.20
2022-12-26T01:57:33.726Z,7.80
2022-12-26T02:00:04.187Z,8.60
2022-12-26T02:03:27.593Z,7.60
2022-12-26T02:06:00.990Z,8.10
2022-12-26T02:08:36.471Z,8.40
2022-12-26T02:11:08.213Z,8.40
2022-12-26T02:13:39.406Z,7.90
2022-12-26T02:16:12.852Z,8.30
2022-12-26T02:18:41.992Z,8.40
2022-12-26T02:21:32.288Z,8.10
2022-12-26T02:24:40.028Z,8.40
2022-12-26T02:27:30.450Z,8.00
2022-12-26T02:30:14.153Z,8.60
2022-12-26T02:33:08.867Z,8.00
2022-12-26T02:35:56.917Z,7.80
2022-12-26T02:38:52.642Z,8.10
2022-12-26T02:41:48.080Z,8.50
2022-12-26T02:44:52.545Z,9.30
2022-12-26T02:47:49.247Z,8.80
2022-12-26T02:50:55.106Z,9.30
2022-12-26T02:54:04.250Z,8.80
2022-12-26T02:56:57.313Z,9.60
2022-12-26T03:00:12.769Z,9.40
2022-12-26T03:03:20.192Z,9.20
2022-12-26T03:06:26.626Z,9.50
2022-12-26T03:09:20.999Z,9.00
2022-12-26T03:12:16.272Z,9.00
2022-12-26T03:15:01.437Z,9.00
2022-12-26T03:18:04.473Z,9.60
2022-12-26T03:20:37.225Z,8.80
2022-12-26T03:23:12.144Z,8.40
2022-12-26T03:26:14.682Z,8.70
2022-12-26T03:28:44.160Z,8.70
2022-12-26T03:31:16.107Z,9.10
2022-12-26T03:34:05.562Z,9.30
2022-12-26T03:37:11.039Z,9.20
2022-12-26T03:40:23.482Z,9.90
2022-12-26T03:43:23.079Z,9.00
2022-12-26T03:46:58.130Z,10.60
2022-12-26T03:49:50.890Z,9.20
2022-12-26T03:52:53.816Z,10.50
2022-12-26T03:56:04.222Z,10.20
2022-12-26T03:59:17.018Z,10.50
2022-12-26T04:02:06.444Z,10.40
2022-12-26T04:04:59.149Z,10.30
2022-12-26T04:07:59.065Z,8.60
2022-12-26T04:11:11.531Z,7.80
2022-12-26T04:14:11.912Z,6.80
2022-12-26T04:16:59.285Z,6.60
2022-12-26T04:19:42.721Z,6.50
2022-12-26T04:23:15.527Z,6.60
2022-12-26T04:26:17.280Z,6.00
2022-12-26T04:29:04.728Z,6.00
2022-12-26T04:32:23.839Z,7.60
2022-12-26T04:35:28.891Z,7.10
2022-12-26T04:38:17.941Z,6.70
2022-12-26T04:41:11.120Z,6.60
2022-12-26T04:44:00.226Z,6.10
2022-12-26T04:46:30.891Z,6.40
2022-12-26T04:49:19.412Z,6.30
2022-12-26T04:51:49.502Z,5.60
2022-12-26T04:54:18.922Z,6.80
2022-12-26T04:56:47.528Z,5.80
2022-12-26T04:59:16.819Z,7.00
2022-12-26T05:02:03.907Z,6.20
2022-12-26T05:04:51.519Z,7.50
2022-12-26T05:07:42.514Z,7.00
2022-12-26T05:10:42.170Z,7.00
2022-12-26T05:13:11.536Z,6.90
2022-12-26T05:15:58.288Z,6.50
2022-12-26T05:18:45.287Z,6.60
2022-12-26T05:21:38.499Z,7.20
2022-12-26T05:24:29.740Z,7.40
2022-12-26T05:27:17.121Z,7.50
2022-12-26T05:29:45.851Z,7.00
2022-12-26T05:32:14.538Z,6.90
2022-12-26T05:34:43.157Z,6.60
2022-12-26T05:37:11.857Z,8.00
2022-12-26T05:39:40.460Z,7.90
2022-12-26T05:42:09.021Z,8.00
2022-12-26T05:44:37.866Z,7.50
2022-12-26T05:47:06.546Z,7.30
2022-12-26T05:49:35.299Z,8.50
2022-12-26T05:52:04.281Z,8.40
2022-12-26T05:54:32.839Z,9.10
2022-12-26T05:57:01.768Z,10.60
2022-12-26T06:00:32.636Z,10.40
2022-12-26T06:03:02.541Z,9.10
2022-12-26T06:05:32.247Z,8.50
2022-12-26T06:08:01.052Z,9.00
2022-12-26T06:10:29.919Z,8.60
2022-12-26T06:16:36.619Z,7.80
2022-12-26T06:19:05.221Z,7.30
2022-12-26T06:21:33.997Z,8.00
2022-12-26T06:24:02.605Z,8.40
2022-12-26T06:26:31.230Z,7.60
2022-12-26T06:28:59.783Z,8.20
2022-12-26T06:31:28.430Z,7.30
2022-12-26T06:33:58.856Z,7.20
2022-12-26T06:36:28.655Z,7.40
2022-12-26T06:38:58.704Z,7.90
2022-12-26T06:41:27.315Z,7.50
2022-12-26T06:43:56.359Z,7.30
2022-12-26T06:46:27.614Z,7.50
2022-12-26T06:48:56.323Z,6.90
2022-12-26T06:51:29.184Z,8.10
2022-12-26T06:54:02.557Z,7.20
2022-12-26T06:56:32.960Z,7.50
2022-12-26T06:59:05.359Z,3.30
2022-12-26T07:01:35.759Z,7.60
2022-12-26T07:04:07.868Z,5.30
2022-12-26T07:06:38.831Z,6.20
2022-12-26T07:09:14.721Z,5.00
2022-12-26T07:11:49.582Z,4.30
2022-12-26T07:14:18.635Z,8.20
2022-12-26T07:16:47.713Z,8.20
2022-12-26T07:19:17.871Z,8.70
2022-12-26T07:21:46.496Z,6.80
2022-12-26T07:24:19.323Z,4.70
2022-12-26T07:26:49.845Z,5.60
2022-12-26T07:29:19.023Z,5.40
2022-12-26T07:31:47.969Z,7.00
2022-12-26T07:34:16.714Z,6.60
2022-12-26T07:36:45.329Z,8.20
2022-12-26T07:39:14.572Z,6.60
2022-12-26T07:41:58.315Z,7.80
2022-12-26T07:44:30.015Z,6.00
2022-12-26T07:47:00.355Z,8.50
2022-12-26T07:49:29.016Z,7.90
2022-12-26T07:51:57.856Z,8.60
2022-12-26T07:54:28.891Z,8.70
2022-12-26T07:57:21.728Z,9.10
2022-12-26T07:59:46.437Z,8.30
2022-12-26T08:02:15.264Z,10.10
2022-12-26T08:04:44.134Z,8.90
2022-12-26T08:07:13.178Z,9.60
2022-12-26T08:09:43.313Z,11.30
2022-12-26T08:12:14.020Z,10.00
2022-12-26T08:14:43.874Z,8.90
2022-12-26T08:17:16.579Z,10.00
2022-12-26T08:19:46.120Z,14.00
2022-12-26T08:22:14.731Z,11.40
2022-12-26T08:24:43.330Z,10.40
2022-12-26T08:27:12.384Z,11.20
2022-12-26T08:29:40.924Z,8.70
2022-12-26T08:32:09.547Z,8.90
2022-12-26T08:34:38.205Z,9.20
2022-12-26T08:37:06.715Z,9.80
2022-12-26T08:45:26.621Z,11.00
2022-12-26T08:47:55.470Z,11.10
2022-12-26T08:50:25.332Z,8.90
2022-12-26T08:52:53.961Z,10.40
2022-12-26T08:55:22.657Z,10.30
2022-12-26T08:57:51.369Z,10.40
2022-12-26T09:00:24.058Z,14.60
2022-12-26T09:02:53.841Z,10.70
2022-12-26T09:05:22.709Z,11.20
2022-12-26T09:07:51.444Z,10.70
2022-12-26T09:10:20.097Z,10.10
2022-12-26T09:12:49.244Z,10.50
2022-12-26T09:15:17.999Z,11.00
2022-12-26T09:17:46.536Z,10.70
2022-12-26T09:20:17.224Z,10.80
2022-12-26T09:22:51.978Z,11.90
2022-12-26T09:25:26.726Z,10.70
2022-12-26T09:27:59.156Z,9.40
2022-12-26T09:30:28.261Z,6.50
2022-12-26T09:32:56.915Z,5.20
2022-12-26T09:35:25.558Z,7.70
2022-12-26T09:37:54.396Z,6.90
2022-12-26T09:40:31.970Z,8.70
2022-12-26T09:43:50.382Z,7.80
2022-12-26T09:46:33.728Z,7.90
2022-12-26T09:49:18.605Z,7.00
2022-12-26T09:51:59.231Z,10.20
2022-12-26T09:54:40.837Z,7.40
2022-12-26T09:57:19.089Z,10.50
2022-12-26T09:59:58.641Z,12.10
2022-12-26T10:02:27.726Z,9.20
2022-12-26T10:04:56.758Z,8.60
2022-12-26T10:07:50.290Z,7.90
2022-12-26T10:10:51.625Z,7.00
2022-12-26T10:13:29.859Z,7.70
2022-12-26T10:16:07.558Z,8.30
2022-12-26T10:19:13.103Z,8.40
2022-12-26T10:22:06.385Z,8.10
2022-12-26T10:24:39.273Z,7.70
2022-12-26T10:27:17.184Z,8.50
2022-12-26T10:30:00.236Z,7.60
2022-12-26T10:32:44.787Z,8.80
2022-12-26T10:35:27.912Z,9.90
2022-12-26T10:38:05.577Z,9.90
2022-12-26T10:40:45.658Z,11.80
2022-12-26T10:43:35.975Z,11.00
2022-12-26T10:46:23.799Z,11.20
2022-12-26T10:48:53.619Z,12.00
2022-12-26T10:51:22.646Z,11.30
2022-12-26T10:53:53.959Z,9.50
2022-12-26T10:56:25.446Z,10.50
2022-12-26T10:59:04.345Z,8.90
2022-12-26T11:01:40.309Z,7.00
2022-12-26T11:07:18.876Z,7.20
2022-12-26T11:09:56.259Z,7.20
2022-12-26T11:12:55.901Z,7.40
2022-12-26T11:15:56.841Z,5.60
2022-12-26T11:18:50.469Z,7.70
2022-12-26T11:21:19.217Z,6.90
2022-12-26T11:23:52.627Z,7.70
2022-12-26T11:26:32.690Z,7.70
2022-12-26T11:29:21.911Z,9.10
2022-12-26T11:31:58.518Z,7.00
2022-12-26T11:34:47.710Z,7.60
2022-12-26T11:37:55.648Z,7.10
2022-12-26T11:40:32.664Z,6.40
2022-12-26T11:43:05.772Z,6.50
2022-12-26T11:45:44.448Z,7.10
2022-12-26T11:48:39.910Z,7.70
2022-12-26T11:51:10.540Z,6.50
2022-12-26T11:53:39.316Z,8.70
2022-12-26T11:56:09.049Z,7.40
2022-12-26T11:58:37.783Z,8.60
2022-12-26T12:01:17.889Z,8.50
2022-12-26T12:03:51.034Z,9.00
2022-12-26T12:07:04.290Z,8.80
2022-12-26T12:09:50.296Z,8.30
2022-12-26T12:12:52.595Z,6.40
2022-12-26T12:15:42.318Z,7.60
2022-12-26T12:18:22.841Z,6.80
2022-12-26T12:21:18.241Z,7.50
2022-12-26T12:24:14.196Z,8.30
2022-12-26T12:27:16.731Z,9.40
2022-12-26T12:30:03.406Z,9.50
2022-12-26T12:32:56.884Z,8.20
2022-12-26T12:35:56.212Z,7.90
2022-12-26T12:38:36.818Z,8.70
2022-12-26T12:41:32.705Z,9.90
2022-12-26T12:44:19.750Z,9.50
2022-12-26T12:47:17.774Z,11.10
2022-12-26T12:49:46.492Z,10.60
2022-12-26T12:52:26.926Z,9.60
2022-12-26T12:55:38.662Z,7.70
2022-12-26T12:58:34.189Z,9.90
2022-12-26T13:01:28.461Z,11.00
2022-12-26T13:04:14.196Z,10.70
2022-12-26T13:06:46.498Z,12.30
2022-12-26T13:09:35.332Z,11.60
2022-12-26T13:12:16.130Z,12.90
2022-12-26T13:14:53.043Z,13.20
2022-12-26T13:17:45.674Z,9.70
2022-12-26T13:20:38.342Z,9.80
2022-12-26T13:23:37.917Z,14.60
2022-12-26T13:26:13.936Z,13.00
2022-12-26T13:29:03.003Z,11.80
2022-12-26T13:31:40.514Z,12.30
2022-12-26T13:34:16.167Z,11.40
2022-12-26T13:36:52.457Z,11.10
2022-12-26T13:39:27.434Z,11.80
2022-12-26T13:42:38.388Z,12.30
2022-12-26T13:45:38.214Z,12.50
2022-12-26T13:48:18.959Z,14.20
2022-12-26T13:51:00.344Z,14.20
2022-12-26T13:53:34.494Z,15.10
2022-12-26T13:56:38.583Z,15.30
2022-12-26T14:00:08.258Z,14.80
2022-12-26T14:03:18.693Z,14.40
2022-12-26T14:06:20.195Z,16.30
2022-12-26T14:09:13.044Z,16.20
2022-12-26T14:11:53.615Z,16.50
2022-12-26T14:14:37.302Z,16.00
2022-12-26T14:17:32.567Z,14.60
2022-12-26T14:20:32.779Z,13.80
2022-12-26T14:23:45.890Z,14.70
2022-12-26T14:26:54.914Z,15.90
2022-12-26T14:29:47.684Z,14.00
2022-12-26T14:32:44.481Z,14.10
2022-12-26T14:35:30.887Z,15.50
2022-12-26T14:38:24.506Z,14.10
2022-12-26T14:41:04.909Z,15.40
2022-12-26T14:43:39.802Z,14.60
2022-12-26T14:46:35.199Z,15.10
2022-12-26T14:49:29.248Z,13.90
2022-12-26T14:52:25.771Z,15.00
2022-12-26T14:54:56.277Z,16.40
2022-12-26T14:57:44.095Z,18.40
2022-12-26T15:00:21.727Z,16.80
2022-12-26T15:03:38.166Z,17.30
2022-12-26T15:06:18.921Z,17.00
2022-12-26T15:09:18.709Z,16.30
2022-12-26T15:12:02.711Z,16.40
2022-12-26T15:14:40.276Z,16.30
2022-12-26T15:17:37.982Z,16.00
2022-12-26T15:20:47.694Z,16.70
2022-12-26T15:23:33.150Z,15.90
2022-12-26T15:26:32.819Z,16.90
2022-12-26T15:29:35.987Z,16.10
2022-12-26T15:34:46.833Z,17.40
2022-12-26T15:37:54.682Z,17.50
2022-12-26T15:40:36.664Z,17.90
2022-12-26T15:43:38.765Z,20.20
2022-12-26T15:46:33.271Z,24.50
2022-12-26T15:49:26.968Z,19.70
2022-12-26T15:52:35.262Z,20.60
2022-12-26T15:55:25.178Z,20.10
2022-12-26T15:58:06.096Z,18.20
2022-12-26T16:00:51.463Z,23.00
2022-12-26T16:03:57.142Z,20.40
2022-12-26T16:07:20.029Z,18.90
2022-12-26T16:09:58.786Z,18.60
2022-12-26T16:12:34.332Z,17.40
2022-12-26T16:15:10.426Z,15.90
2022-12-26T16:17:41.483Z,14.70
2022-12-26T16:20:39.174Z,16.40
2022-12-26T16:23:14.296Z,16.30
2022-12-26T16:26:23.225Z,16.70
2022-12-26T16:28:53.574Z,16.50
2022-12-26T16:31:28.388Z,17.40
2022-12-26T16:34:00.358Z,17.60
2022-12-26T16:36:33.185Z,20.30
2022-12-26T16:39:02.647Z,21.60
2022-12-26T16:41:33.082Z,23.80
2022-12-26T16:44:31.009Z,22.10
2022-12-26T16:47:05.167Z,22.70
2022-12-26T16:49:34.891Z,21.80
2022-12-26T16:52:03.962Z,17.50
2022-12-26T16:54:42.690Z,21.70
2022-12-26T16:57:21.875Z,17.70
2022-12-26T16:59:56.275Z,18.50
2022-12-26T17:02:32.458Z,19.10
2022-12-26T17:05:22.553Z,19.20
2022-12-26T17:07:53.393Z,17.00
2022-12-26T17:10:36.370Z,21.30
2022-12-26T17:13:09.912Z,22.10
2022-12-26T17:15:54.411Z,17.90
2022-12-26T17:18:50.053Z,26.60
2022-12-26T17:21:32.853Z,18.10
2022-12-26T17:24:25.505Z,19.90
2022-12-26T17:27:17.158Z,20.00
2022-12-26T17:29:53.875Z,22.30
2022-12-26T17:32:32.061Z,23.00
2022-12-26T17:35:25.638Z,24.50
2022-12-26T17:38:02.348Z,23.70
2022-12-26T17:40:37.708Z,24.70
2022-12-26T17:43:07.380Z,22.90
2022-12-26T17:45:38.928Z,21.80
2022-12-26T17:48:12.570Z,28.00
2022-12-26T17:50:45.054Z,27.90
2022-12-26T17:53:22.583Z,25.40
2022-12-26T17:55:53.810Z,21.30
2022-12-26T17:58:23.327Z,19.10
2022-12-26T18:00:53.056Z,21.70
2022-12-26T18:03:22.297Z,20.50
2022-12-26T18:05:51.647Z,20.50
2022-12-26T18:08:32.745Z,23.70
2022-12-26T18:11:04.677Z,26.50
2022-12-26T18:13:34.244Z,23.80
2022-12-26T18:16:04.713Z,24.10
2022-12-26T18:18:44.116Z,22.20
2022-12-26T18:21:15.953Z,16.80
2022-12-26T18:23:44.768Z,20.00
2022-12-26T18:26:27.876Z,19.20
2022-12-26T18:28:57.366Z,18.40
2022-12-26T18:31:29.228Z,20.40
2022-12-26T18:33:58.427Z,22.20
2022-12-26T18:36:36.803Z,15.30
2022-12-26T18:39:06.319Z,15.90
2022-12-26T18:41:36.332Z,15.90
2022-12-26T18:44:05.167Z,16.40
2022-12-26T18:46:35.629Z,17.20
2022-12-26T18:49:04.369Z,14.90
2022-12-26T18:51:32.947Z,20.50
2022-12-26T18:54:01.575Z,17.90
2022-12-26T18:56:30.206Z,19.00
2022-12-26T18:58:58.949Z,17.40
2022-12-26T19:01:27.909Z,21.00
2022-12-26T19:03:57.907Z,22.30
2022-12-26T19:06:30.203Z,17.00
2022-12-26T19:08:59.212Z,15.90
2022-12-26T19:11:28.375Z,17.70
2022-12-26T19:13:57.467Z,13.50
2022-12-26T19:16:26.135Z,18.30
2022-12-26T19:18:54.727Z,18.80
2022-12-26T19:21:23.457Z,24.20
2022-12-26T19:23:52.576Z,24.20
2022-12-26T19:26:22.128Z,21.50
2022-12-26T19:28:56.030Z,14.80
2022-12-26T19:31:24.779Z,19.80
2022-12-26T19:33:53.492Z,17.90
2022-12-26T19:36:22.020Z,15.10
2022-12-26T19:38:54.368Z,17.60
2022-12-26T19:41:23.229Z,17.30
2022-12-26T19:43:59.732Z,18.20
2022-12-26T19:46:29.000Z,23.10
2022-12-26T19:48:57.659Z,22.10
2022-12-26T19:51:26.289Z,19.10
2022-12-26T19:53:54.973Z,21.50
2022-12-26T19:56:27.758Z,23.70
2022-12-26T19:58:57.097Z,17.90
2022-12-26T20:01:32.253Z,19.10
2022-12-26T20:04:04.661Z,20.20
2022-12-26T20:06:37.172Z,15.10
2022-12-26T20:09:10.320Z,17.60
2022-12-26T20:11:44.803Z,20.80
2022-12-26T20:14:17.454Z,20.80
2022-12-26T20:17:08.655Z,17.00
2022-12-26T20:19:38.310Z,19.90
2022-12-26T20:22:07.870Z,21.70
2022-12-26T20:24:36.430Z,14.30
2022-12-26T20:27:05.123Z,18.10
2022-12-26T20:29:33.865Z,16.80
2022-12-26T20:32:02.680Z,17.50
2022-12-26T20:34:31.319Z,16.80
2022-12-26T20:37:00.003Z,18.00
2022-12-26T20:39:28.716Z,19.20
2022-12-26T20:41:57.768Z,16.60
2022-12-26T20:44:26.485Z,17.10
2022-12-26T20:46:55.739Z,19.00
2022-12-26T20:49:24.287Z,18.30
2022-12-26T20:51:52.947Z,18.70
2022-12-26T20:54:22.736Z,21.30
2022-12-26T20:56:51.593Z,19.60
2022-12-26T20:59:20.317Z,20.30
2022-12-26T21:01:49.097Z,22.80
2022-12-26T21:04:22.452Z,21.60
2022-12-26T21:06:52.303Z,20.10
2022-12-26T21:09:20.967Z,19.50
2022-12-26T21:11:49.701Z,16.70
2022-12-26T21:14:21.788Z,16.70
2022-12-26T21:16:54.765Z,20.60
2022-12-26T21:19:26.565Z,17.90
2022-12-26T21:21:56.391Z,22.40
2022-12-26T21:24:31.214Z,19.20
2022-12-26T21:26:59.872Z,18.30
2022-12-26T21:29:32.498Z,20.10
2022-12-26T21:32:02.879Z,19.90
2022-12-26T21:34:33.616Z,19.40
2022-12-26T21:37:21.534Z,19.50
2022-12-26T21:39:50.859Z,18.60
2022-12-26T21:42:19.541Z,20.40
2022-12-26T21:44:48.328Z,21.40
2022-12-26T21:47:16.900Z,21.60
2022-12-26T21:49:45.630Z,23.00
2022-12-26T21:53:40.685Z,15.40
2022-12-26T21:59:47.805Z,21.10
2022-12-26T22:02:34.858Z,20.60
2022-12-26T22:05:03.992Z,16.10
2022-12-26T22:07:32.886Z,17.40
2022-12-26T22:10:02.512Z,12.50
2022-12-26T22:12:49.998Z,15.00
2022-12-26T22:15:37.431Z,17.50
2022-12-26T22:18:06.135Z,15.50
2022-12-26T22:20:35.749Z,16.50
2022-12-26T22:23:04.985Z,13.50
2022-12-26T22:25:33.649Z,17.90
2022-12-26T22:28:02.491Z,15.30
2022-12-26T22:30:31.093Z,18.00
2022-12-26T22:32:59.692Z,18.60
2022-12-26T22:35:28.375Z,18.90
2022-12-26T22:37:57.276Z,13.40
2022-12-26T22:40:25.933Z,17.10
2022-12-26T22:42:54.503Z,14.60
2022-12-26T22:45:23.102Z,12.10
2022-12-26T22:47:51.625Z,17.80
2022-12-26T22:50:20.769Z,14.80
2022-12-26T22:52:49.443Z,15.50
2022-12-26T22:55:18.343Z,14.90
2022-12-26T22:57:51.147Z,18.50
2022-12-26T23:00:21.189Z,17.80
2022-12-26T23:02:50.041Z,16.60
2022-12-26T23:05:19.406Z,16.50
2022-12-26T23:07:48.288Z,15.30
2022-12-26T23:10:21.898Z,15.50
2022-12-26T23:12:51.364Z,14.60
2022-12-26T23:15:25.054Z,13.10
2022-12-26T23:18:52.896Z,17.40
2022-12-26T23:21:44.397Z,13.20
2022-12-26T23:24:19.040Z,14.80
2022-12-26T23:26:55.151Z,14.80
2022-12-26T23:29:43.501Z,9.50
2022-12-26T23:32:12.350Z,15.80
2022-12-26T23:34:40.927Z,12.60
2022-12-26T23:37:09.506Z,17.20
2022-12-26T23:39:38.104Z,16.20
2022-12-26T23:42:06.925Z,11.70
2022-12-26T23:44:35.611Z,17.10
2022-12-26T23:47:04.322Z,13.50
2022-12-26T23:49:33.208Z,13.70
2022-12-26T23:52:02.003Z,14.40
2022-12-26T23:54:30.488Z,15.20
2022-12-26T23:56:59.181Z,16.70
2022-12-26T23:59:28.124Z,14.70
